sensor_id;sensor_type;location;lat;lon;timestamp;P1;durP1;ratioP1;P2;durP2;ratioP2
18931;SDS011;9598;50.954;3.112;2024-01-30T00:00:19;11.80;;;9.45;;
18931;SDS011;9598;50.954;3.112;2024-01-30T00:05:22;11.10;;;10.00;;
18931;SDS011;9598;50.954;3.112;2024-01-30T00:10:25;10.52;;;9.50;;
18931;SDS011;9598;50.954;3.112;2024-01-30T00:15:28;12.70;;;10.00;;
18931;SDS011;9598;50.954;3.112;2024-01-30T00:20:30;12.00;;;9.82;;
18931;SDS011;9598;50.954;3.112;2024-01-30T00:25:34;10.38;;;9.30;;
18931;SDS011;9598;50.954;3.112;2024-01-30T00:30:36;10.50;;;9.32;;
18931;SDS011;9598;50.954;3.112;2024-01-30T00:35:38;11.85;;;10.40;;
18931;SDS011;9598;50.954;3.112;2024-01-30T00:40:42;11.68;;;9.45;;
18931;SDS011;9598;50.954;3.112;2024-01-30T00:45:44;10.82;;;9.80;;
18931;SDS011;9598;50.954;3.112;2024-01-30T00:50:46;11.10;;;10.00;;
18931;SDS011;9598;50.954;3.112;2024-01-30T00:55:51;13.25;;;10.48;;
18931;SDS011;9598;50.954;3.112;2024-01-30T01:00:53;12.27;;;10.23;;
18931;SDS011;9598;50.954;3.112;2024-01-30T01:05:55;11.23;;;9.75;;
18931;SDS011;9598;50.954;3.112;2024-01-30T01:11:00;11.15;;;9.98;;
18931;SDS011;9598;50.954;3.112;2024-01-30T01:16:03;12.63;;;10.30;;
18931;SDS011;9598;50.954;3.112;2024-01-30T01:21:06;11.15;;;10.00;;
18931;SDS011;9598;50.954;3.112;2024-01-30T01:26:10;12.07;;;10.75;;
18931;SDS011;9598;50.954;3.112;2024-01-30T01:31:12;12.20;;;10.60;;
18931;SDS011;9598;50.954;3.112;2024-01-30T01:36:15;12.18;;;10.88;;
18931;SDS011;9598;50.954;3.112;2024-01-30T01:41:18;11.45;;;10.25;;
18931;SDS011;9598;50.954;3.112;2024-01-30T01:46:21;11.63;;;10.45;;
18931;SDS011;9598;50.954;3.112;2024-01-30T01:51:24;11.82;;;9.77;;
18931;SDS011;9598;50.954;3.112;2024-01-30T01:56:30;11.02;;;9.98;;
18931;SDS011;9598;50.954;3.112;2024-01-30T02:01:34;11.38;;;10.18;;
18931;SDS011;9598;50.954;3.112;2024-01-30T02:06:38;12.10;;;10.82;;
18931;SDS011;9598;50.954;3.112;2024-01-30T02:11:42;11.57;;;10.38;;
18931;SDS011;9598;50.954;3.112;2024-01-30T02:16:45;12.73;;;10.88;;
18931;SDS011;9598;50.954;3.112;2024-01-30T02:21:48;13.98;;;11.05;;
18931;SDS011;9598;50.954;3.112;2024-01-30T02:26:51;11.45;;;10.35;;
18931;SDS011;9598;50.954;3.112;2024-01-30T02:31:54;12.00;;;10.80;;
18931;SDS011;9598;50.954;3.112;2024-01-30T02:36:57;12.18;;;9.57;;
18931;SDS011;9598;50.954;3.112;2024-01-30T02:41:59;12.05;;;10.93;;
18931;SDS011;9598;50.954;3.112;2024-01-30T02:47:02;11.02;;;10.10;;
18931;SDS011;9598;50.954;3.112;2024-01-30T02:52:05;11.82;;;10.63;;
18931;SDS011;9598;50.954;3.112;2024-01-30T02:57:08;11.13;;;9.27;;
18931;SDS011;9598;50.954;3.112;2024-01-30T03:02:10;12.00;;;10.77;;
18931;SDS011;9598;50.954;3.112;2024-01-30T03:07:13;11.20;;;9.32;;
18931;SDS011;9598;50.954;3.112;2024-01-30T03:12:16;11.20;;;9.90;;
18931;SDS011;9598;50.954;3.112;2024-01-30T03:17:18;10.23;;;9.32;;
18931;SDS011;9598;50.954;3.112;2024-01-30T03:22:22;12.98;;;10.43;;
18931;SDS011;9598;50.954;3.112;2024-01-30T03:27:24;13.40;;;10.13;;
18931;SDS011;9598;50.954;3.112;2024-01-30T03:32:26;11.52;;;10.32;;
18931;SDS011;9598;50.954;3.112;2024-01-30T03:37:30;11.60;;;10.48;;
18931;SDS011;9598;50.954;3.112;2024-01-30T03:42:32;12.90;;;10.57;;
18931;SDS011;9598;50.954;3.112;2024-01-30T03:47:34;11.93;;;10.73;;
18931;SDS011;9598;50.954;3.112;2024-01-30T03:52:38;12.93;;;10.05;;
18931;SDS011;9598;50.954;3.112;2024-01-30T03:57:40;11.80;;;10.63;;
18931;SDS011;9598;50.954;3.112;2024-01-30T04:02:42;12.07;;;10.77;;
18931;SDS011;9598;50.954;3.112;2024-01-30T04:07:47;10.93;;;9.82;;
18931;SDS011;9598;50.954;3.112;2024-01-30T04:12:49;12.30;;;10.73;;
18931;SDS011;9598;50.954;3.112;2024-01-30T04:17:52;11.82;;;10.52;;
18931;SDS011;9598;50.954;3.112;2024-01-30T04:22:56;13.50;;;10.35;;
18931;SDS011;9598;50.954;3.112;2024-01-30T04:27:58;11.25;;;10.07;;
18931;SDS011;9598;50.954;3.112;2024-01-30T04:33:00;11.63;;;10.48;;
18931;SDS011;9598;50.954;3.112;2024-01-30T04:38:04;12.30;;;10.48;;
18931;SDS011;9598;50.954;3.112;2024-01-30T04:43:06;12.20;;;9.93;;
18931;SDS011;9598;50.954;3.112;2024-01-30T04:48:08;11.70;;;10.30;;
18931;SDS011;9598;50.954;3.112;2024-01-30T04:53:13;14.50;;;10.10;;
18931;SDS011;9598;50.954;3.112;2024-01-30T04:58:15;10.48;;;9.38;;
18931;SDS011;9598;50.954;3.112;2024-01-30T05:03:17;11.68;;;9.50;;
18931;SDS011;9598;50.954;3.112;2024-01-30T05:08:21;12.45;;;10.35;;
18931;SDS011;9598;50.954;3.112;2024-01-30T05:13:23;10.95;;;9.30;;
18931;SDS011;9598;50.954;3.112;2024-01-30T05:18:25;11.82;;;9.77;;
18931;SDS011;9598;50.954;3.112;2024-01-30T05:23:29;11.77;;;10.02;;
18931;SDS011;9598;50.954;3.112;2024-01-30T05:28:31;13.43;;;11.13;;
18931;SDS011;9598;50.954;3.112;2024-01-30T05:33:34;12.05;;;10.20;;
18931;SDS011;9598;50.954;3.112;2024-01-30T05:38:38;11.88;;;9.85;;
18931;SDS011;9598;50.954;3.112;2024-01-30T05:43:40;11.32;;;9.60;;
18931;SDS011;9598;50.954;3.112;2024-01-30T05:48:45;11.35;;;9.52;;
18931;SDS011;9598;50.954;3.112;2024-01-30T05:53:48;10.85;;;9.75;;
18931;SDS011;9598;50.954;3.112;2024-01-30T05:58:51;12.98;;;9.48;;
18931;SDS011;9598;50.954;3.112;2024-01-30T06:03:53;11.30;;;8.80;;
18931;SDS011;9598;50.954;3.112;2024-01-30T06:08:57;12.90;;;11.15;;
18931;SDS011;9598;50.954;3.112;2024-01-30T06:13:59;11.07;;;10.05;;
18931;SDS011;9598;50.954;3.112;2024-01-30T06:19:01;11.23;;;9.82;;
18931;SDS011;9598;50.954;3.112;2024-01-30T06:24:05;13.20;;;10.52;;
18931;SDS011;9598;50.954;3.112;2024-01-30T06:29:07;12.65;;;10.23;;
18931;SDS011;9598;50.954;3.112;2024-01-30T06:34:10;11.50;;;10.07;;
18931;SDS011;9598;50.954;3.112;2024-01-30T06:39:13;10.00;;;9.00;;
18931;SDS011;9598;50.954;3.112;2024-01-30T06:44:15;12.02;;;10.00;;
18931;SDS011;9598;50.954;3.112;2024-01-30T06:49:18;13.85;;;10.82;;
18931;SDS011;9598;50.954;3.112;2024-01-30T06:54:24;13.27;;;10.48;;
18931;SDS011;9598;50.954;3.112;2024-01-30T06:59:26;12.68;;;10.38;;
18931;SDS011;9598;50.954;3.112;2024-01-30T07:04:28;13.45;;;10.60;;
18931;SDS011;9598;50.954;3.112;2024-01-30T07:09:33;13.27;;;10.40;;
18931;SDS011;9598;50.954;3.112;2024-01-30T07:14:36;13.93;;;10.55;;
18931;SDS011;9598;50.954;3.112;2024-01-30T07:19:38;13.77;;;10.73;;
18931;SDS011;9598;50.954;3.112;2024-01-30T07:24:43;13.40;;;11.43;;
18931;SDS011;9598;50.954;3.112;2024-01-30T07:29:48;13.75;;;10.35;;
18931;SDS011;9598;50.954;3.112;2024-01-30T07:34:51;12.77;;;10.85;;
18931;SDS011;9598;50.954;3.112;2024-01-30T07:39:54;13.00;;;10.80;;
18931;SDS011;9598;50.954;3.112;2024-01-30T07:44:56;10.75;;;8.95;;
18931;SDS011;9598;50.954;3.112;2024-01-30T07:49:59;13.77;;;7.57;;
18931;SDS011;9598;50.954;3.112;2024-01-30T07:55:03;9.32;;;7.10;;
18931;SDS011;9598;50.954;3.112;2024-01-30T08:00:09;10.75;;;6.00;;
18931;SDS011;9598;50.954;3.112;2024-01-30T08:05:12;7.30;;;5.05;;
18931;SDS011;9598;50.954;3.112;2024-01-30T08:10:17;6.88;;;5.00;;
18931;SDS011;9598;50.954;3.112;2024-01-30T08:15:20;7.45;;;5.00;;
18931;SDS011;9598;50.954;3.112;2024-01-30T08:20:22;6.93;;;5.43;;
18931;SDS011;9598;50.954;3.112;2024-01-30T08:25:26;9.70;;;4.03;;
18931;SDS011;9598;50.954;3.112;2024-01-30T08:30:29;5.63;;;2.63;;
18931;SDS011;9598;50.954;3.112;2024-01-30T08:35:31;4.40;;;2.20;;
18931;SDS011;9598;50.954;3.112;2024-01-30T08:40:35;5.55;;;2.40;;
18931;SDS011;9598;50.954;3.112;2024-01-30T08:45:37;4.95;;;2.45;;
18931;SDS011;9598;50.954;3.112;2024-01-30T08:50:39;5.75;;;2.47;;
18931;SDS011;9598;50.954;3.112;2024-01-30T08:55:43;5.10;;;2.13;;
18931;SDS011;9598;50.954;3.112;2024-01-30T09:00:46;4.55;;;1.40;;
18931;SDS011;9598;50.954;3.112;2024-01-30T09:05:48;3.05;;;1.10;;
18931;SDS011;9598;50.954;3.112;2024-01-30T09:10:52;2.90;;;1.17;;
18931;SDS011;9598;50.954;3.112;2024-01-30T09:15:55;2.88;;;1.20;;
18931;SDS011;9598;50.954;3.112;2024-01-30T09:20:57;3.38;;;1.27;;
18931;SDS011;9598;50.954;3.112;2024-01-30T09:26:01;2.15;;;1.20;;
18931;SDS011;9598;50.954;3.112;2024-01-30T09:31:03;4.85;;;1.23;;
18931;SDS011;9598;50.954;3.112;2024-01-30T09:36:06;2.45;;;1.30;;
18931;SDS011;9598;50.954;3.112;2024-01-30T09:41:11;2.95;;;1.15;;
18931;SDS011;9598;50.954;3.112;2024-01-30T09:46:13;4.60;;;1.60;;
18931;SDS011;9598;50.954;3.112;2024-01-30T09:51:18;3.13;;;1.30;;
18931;SDS011;9598;50.954;3.112;2024-01-30T09:56:23;4.22;;;1.58;;
18931;SDS011;9598;50.954;3.112;2024-01-30T10:01:25;2.70;;;1.48;;
18931;SDS011;9598;50.954;3.112;2024-01-30T10:06:28;4.13;;;1.70;;
18931;SDS011;9598;50.954;3.112;2024-01-30T10:11:31;3.33;;;1.83;;
18931;SDS011;9598;50.954;3.112;2024-01-30T10:16:34;4.20;;;2.13;;
18931;SDS011;9598;50.954;3.112;2024-01-30T10:21:36;6.43;;;1.70;;
18931;SDS011;9598;50.954;3.112;2024-01-30T10:26:40;4.72;;;1.50;;
18931;SDS011;9598;50.954;3.112;2024-01-30T10:31:44;5.55;;;1.70;;
18931;SDS011;9598;50.954;3.112;2024-01-30T10:36:47;2.90;;;1.45;;
18931;SDS011;9598;50.954;3.112;2024-01-30T10:41:55;6.10;;;2.03;;
18931;SDS011;9598;50.954;3.112;2024-01-30T10:47:03;4.72;;;2.15;;
18931;SDS011;9598;50.954;3.112;2024-01-30T10:52:09;5.43;;;1.92;;
18931;SDS011;9598;50.954;3.112;2024-01-30T10:57:15;5.30;;;2.25;;
18931;SDS011;9598;50.954;3.112;2024-01-30T11:02:18;2.65;;;1.70;;
18931;SDS011;9598;50.954;3.112;2024-01-30T11:07:24;3.45;;;1.25;;
18931;SDS011;9598;50.954;3.112;2024-01-30T11:12:29;3.58;;;1.25;;
18931;SDS011;9598;50.954;3.112;2024-01-30T11:17:40;3.70;;;1.60;;
18931;SDS011;9598;50.954;3.112;2024-01-30T11:22:44;5.10;;;1.55;;
18931;SDS011;9598;50.954;3.112;2024-01-30T11:27:50;1.05;;;0.95;;
18931;SDS011;9598;50.954;3.112;2024-01-30T11:33:00;3.20;;;1.17;;
18931;SDS011;9598;50.954;3.112;2024-01-30T11:38:06;2.95;;;1.15;;
18931;SDS011;9598;50.954;3.112;2024-01-30T11:43:10;1.95;;;1.27;;
18931;SDS011;9598;50.954;3.112;2024-01-30T11:48:12;3.92;;;0.98;;
18931;SDS011;9598;50.954;3.112;2024-01-30T11:53:15;2.10;;;1.10;;
18931;SDS011;9598;50.954;3.112;2024-01-30T11:58:18;5.28;;;1.30;;
18931;SDS011;9598;50.954;3.112;2024-01-30T12:03:21;2.22;;;1.30;;
18931;SDS011;9598;50.954;3.112;2024-01-30T12:08:24;2.72;;;1.15;;
18931;SDS011;9598;50.954;3.112;2024-01-30T12:13:29;4.05;;;1.58;;
18931;SDS011;9598;50.954;3.112;2024-01-30T12:18:32;4.93;;;1.40;;
18931;SDS011;9598;50.954;3.112;2024-01-30T12:23:34;4.43;;;1.45;;
18931;SDS011;9598;50.954;3.112;2024-01-30T12:28:46;3.38;;;1.65;;
18931;SDS011;9598;50.954;3.112;2024-01-30T12:33:49;3.13;;;1.40;;
18931;SDS011;9598;50.954;3.112;2024-01-30T12:38:51;4.43;;;1.40;;
18931;SDS011;9598;50.954;3.112;2024-01-30T12:43:55;3.70;;;1.63;;
18931;SDS011;9598;50.954;3.112;2024-01-30T12:48:59;3.70;;;1.40;;
18931;SDS011;9598;50.954;3.112;2024-01-30T12:54:04;5.38;;;1.98;;
18931;SDS011;9598;50.954;3.112;2024-01-30T12:59:08;5.63;;;1.90;;
18931;SDS011;9598;50.954;3.112;2024-01-30T13:04:11;4.88;;;1.50;;
18931;SDS011;9598;50.954;3.112;2024-01-30T13:09:13;7.35;;;1.92;;
18931;SDS011;9598;50.954;3.112;2024-01-30T13:14:16;3.15;;;1.42;;
18931;SDS011;9598;50.954;3.112;2024-01-30T13:19:19;3.95;;;2.13;;
18931;SDS011;9598;50.954;3.112;2024-01-30T13:24:22;4.65;;;2.25;;
18931;SDS011;9598;50.954;3.112;2024-01-30T13:29:25;4.70;;;1.83;;
18931;SDS011;9598;50.954;3.112;2024-01-30T13:34:28;4.88;;;1.83;;
18931;SDS011;9598;50.954;3.112;2024-01-30T13:39:30;7.05;;;2.25;;
18931;SDS011;9598;50.954;3.112;2024-01-30T13:44:33;6.05;;;2.50;;
18931;SDS011;9598;50.954;3.112;2024-01-30T13:49:36;4.03;;;2.08;;
18931;SDS011;9598;50.954;3.112;2024-01-30T13:54:38;4.60;;;2.30;;
18931;SDS011;9598;50.954;3.112;2024-01-30T13:59:42;7.30;;;2.78;;
18931;SDS011;9598;50.954;3.112;2024-01-30T14:04:44;5.60;;;3.80;;
18931;SDS011;9598;50.954;3.112;2024-01-30T14:09:47;7.63;;;2.95;;
18931;SDS011;9598;50.954;3.112;2024-01-30T14:14:51;5.82;;;3.78;;
18931;SDS011;9598;50.954;3.112;2024-01-30T14:19:54;5.45;;;3.40;;
18931;SDS011;9598;50.954;3.112;2024-01-30T14:24:56;9.23;;;3.85;;
18931;SDS011;9598;50.954;3.112;2024-01-30T14:30:03;8.55;;;4.50;;
18931;SDS011;9598;50.954;3.112;2024-01-30T14:35:06;6.88;;;3.83;;
18931;SDS011;9598;50.954;3.112;2024-01-30T14:40:09;6.20;;;3.17;;
18931;SDS011;9598;50.954;3.112;2024-01-30T14:45:13;5.55;;;3.17;;
18931;SDS011;9598;50.954;3.112;2024-01-30T14:50:16;4.65;;;2.78;;
18931;SDS011;9598;50.954;3.112;2024-01-30T14:55:18;4.22;;;2.70;;
18931;SDS011;9598;50.954;3.112;2024-01-30T15:00:22;4.82;;;3.53;;
18931;SDS011;9598;50.954;3.112;2024-01-30T15:05:24;3.65;;;2.80;;
18931;SDS011;9598;50.954;3.112;2024-01-30T15:10:26;4.15;;;2.42;;
18931;SDS011;9598;50.954;3.112;2024-01-30T15:15:29;5.90;;;2.63;;
18931;SDS011;9598;50.954;3.112;2024-01-30T15:20:32;4.43;;;2.40;;
18931;SDS011;9598;50.954;3.112;2024-01-30T15:25:34;2.40;;;2.13;;
18931;SDS011;9598;50.954;3.112;2024-01-30T15:30:37;4.15;;;2.05;;
18931;SDS011;9598;50.954;3.112;2024-01-30T15:35:40;4.63;;;2.67;;
18931;SDS011;9598;50.954;3.112;2024-01-30T15:40:42;2.28;;;2.08;;
18931;SDS011;9598;50.954;3.112;2024-01-30T15:45:46;3.38;;;1.90;;
18931;SDS011;9598;50.954;3.112;2024-01-30T15:50:49;2.47;;;2.28;;
18931;SDS011;9598;50.954;3.112;2024-01-30T15:55:51;2.33;;;2.13;;
18931;SDS011;9598;50.954;3.112;2024-01-30T16:00:54;2.33;;;2.00;;
18931;SDS011;9598;50.954;3.112;2024-01-30T16:05:57;3.83;;;2.63;;
18931;SDS011;9598;50.954;3.112;2024-01-30T16:10:59;2.70;;;2.50;;
18931;SDS011;9598;50.954;3.112;2024-01-30T16:16:03;2.55;;;2.30;;
18931;SDS011;9598;50.954;3.112;2024-01-30T16:21:06;2.95;;;2.67;;
18931;SDS011;9598;50.954;3.112;2024-01-30T16:26:09;3.17;;;2.70;;
18931;SDS011;9598;50.954;3.112;2024-01-30T16:31:12;3.53;;;2.90;;
18931;SDS011;9598;50.954;3.112;2024-01-30T16:36:20;5.55;;;4.95;;
18931;SDS011;9598;50.954;3.112;2024-01-30T16:41:22;4.97;;;3.15;;
18931;SDS011;9598;50.954;3.112;2024-01-30T16:46:26;3.35;;;2.65;;
18931;SDS011;9598;50.954;3.112;2024-01-30T16:51:28;3.33;;;3.03;;
18931;SDS011;9598;50.954;3.112;2024-01-30T16:56:31;3.97;;;3.38;;
18931;SDS011;9598;50.954;3.112;2024-01-30T17:01:34;3.60;;;3.30;;
18931;SDS011;9598;50.954;3.112;2024-01-30T17:06:36;3.88;;;3.22;;
18931;SDS011;9598;50.954;3.112;2024-01-30T17:11:39;3.80;;;3.38;;
18931;SDS011;9598;50.954;3.112;2024-01-30T17:16:43;5.50;;;3.50;;
18931;SDS011;9598;50.954;3.112;2024-01-30T17:21:46;3.72;;;3.10;;
18931;SDS011;9598;50.954;3.112;2024-01-30T17:26:48;3.78;;;3.25;;
18931;SDS011;9598;50.954;3.112;2024-01-30T17:31:52;4.78;;;3.70;;
18931;SDS011;9598;50.954;3.112;2024-01-30T17:36:55;3.92;;;3.28;;
18931;SDS011;9598;50.954;3.112;2024-01-30T17:41:57;3.70;;;3.13;;
18931;SDS011;9598;50.954;3.112;2024-01-30T17:47:01;4.35;;;3.67;;
18931;SDS011;9598;50.954;3.112;2024-01-30T17:52:04;6.43;;;3.58;;
18931;SDS011;9598;50.954;3.112;2024-01-30T17:57:07;7.28;;;3.65;;
18931;SDS011;9598;50.954;3.112;2024-01-30T18:02:11;8.60;;;7.25;;
18931;SDS011;9598;50.954;3.112;2024-01-30T18:07:14;4.97;;;4.47;;
18931;SDS011;9598;50.954;3.112;2024-01-30T18:12:16;4.55;;;4.15;;
18931;SDS011;9598;50.954;3.112;2024-01-30T18:17:20;4.85;;;3.83;;
18931;SDS011;9598;50.954;3.112;2024-01-30T18:22:22;6.65;;;4.82;;
18931;SDS011;9598;50.954;3.112;2024-01-30T18:27:25;5.97;;;5.35;;
18931;SDS011;9598;50.954;3.112;2024-01-30T18:32:29;6.47;;;5.25;;
18931;SDS011;9598;50.954;3.112;2024-01-30T18:37:31;5.38;;;4.88;;
18931;SDS011;9598;50.954;3.112;2024-01-30T18:42:36;6.72;;;5.53;;
18931;SDS011;9598;50.954;3.112;2024-01-30T18:47:39;5.97;;;5.30;;
18931;SDS011;9598;50.954;3.112;2024-01-30T18:52:41;5.82;;;5.22;;
18931;SDS011;9598;50.954;3.112;2024-01-30T18:57:45;5.75;;;5.15;;
18931;SDS011;9598;50.954;3.112;2024-01-30T19:02:49;12.75;;;9.10;;
18931;SDS011;9598;50.954;3.112;2024-01-30T19:07:51;9.07;;;7.57;;
18931;SDS011;9598;50.954;3.112;2024-01-30T19:12:54;7.75;;;6.85;;
18931;SDS011;9598;50.954;3.112;2024-01-30T19:17:58;7.75;;;6.95;;
18931;SDS011;9598;50.954;3.112;2024-01-30T19:23:01;16.20;;;13.77;;
18931;SDS011;9598;50.954;3.112;2024-01-30T19:28:04;13.43;;;10.25;;
18931;SDS011;9598;50.954;3.112;2024-01-30T19:33:08;9.15;;;8.18;;
18931;SDS011;9598;50.954;3.112;2024-01-30T19:38:11;8.40;;;7.57;;
18931;SDS011;9598;50.954;3.112;2024-01-30T19:43:14;11.45;;;8.68;;
18931;SDS011;9598;50.954;3.112;2024-01-30T19:48:18;11.02;;;8.70;;
18931;SDS011;9598;50.954;3.112;2024-01-30T19:53:20;10.85;;;8.20;;
18931;SDS011;9598;50.954;3.112;2024-01-30T19:58:23;8.13;;;7.22;;
18931;SDS011;9598;50.954;3.112;2024-01-30T20:03:27;8.70;;;7.32;;
18931;SDS011;9598;50.954;3.112;2024-01-30T20:08:30;7.50;;;6.78;;
18931;SDS011;9598;50.954;3.112;2024-01-30T20:13:35;7.93;;;7.13;;
18931;SDS011;9598;50.954;3.112;2024-01-30T20:18:41;8.90;;;8.10;;
18931;SDS011;9598;50.954;3.112;2024-01-30T20:23:44;7.65;;;6.95;;
18931;SDS011;9598;50.954;3.112;2024-01-30T20:28:47;7.80;;;7.00;;
18931;SDS011;9598;50.954;3.112;2024-01-30T20:33:55;8.90;;;7.10;;
18931;SDS011;9598;50.954;3.112;2024-01-30T20:38:58;10.00;;;8.50;;
18931;SDS011;9598;50.954;3.112;2024-01-30T20:44:00;8.70;;;7.90;;
18931;SDS011;9598;50.954;3.112;2024-01-30T20:49:04;8.27;;;7.57;;
18931;SDS011;9598;50.954;3.112;2024-01-30T20:54:07;8.13;;;7.32;;
18931;SDS011;9598;50.954;3.112;2024-01-30T20:59:09;7.95;;;7.13;;
18931;SDS011;9598;50.954;3.112;2024-01-30T21:04:14;8.55;;;7.72;;
18931;SDS011;9598;50.954;3.112;2024-01-30T21:09:16;8.45;;;7.55;;
18931;SDS011;9598;50.954;3.112;2024-01-30T21:14:19;12.88;;;8.68;;
18931;SDS011;9598;50.954;3.112;2024-01-30T21:19:23;9.30;;;8.43;;
18931;SDS011;9598;50.954;3.112;2024-01-30T21:24:26;11.43;;;8.25;;
18931;SDS011;9598;50.954;3.112;2024-01-30T21:29:28;9.68;;;8.32;;
18931;SDS011;9598;50.954;3.112;2024-01-30T21:34:32;10.68;;;8.13;;
18931;SDS011;9598;50.954;3.112;2024-01-30T21:39:34;9.50;;;8.55;;
18931;SDS011;9598;50.954;3.112;2024-01-30T21:44:38;12.48;;;9.52;;
18931;SDS011;9598;50.954;3.112;2024-01-30T21:49:42;10.75;;;9.70;;
18931;SDS011;9598;50.954;3.112;2024-01-30T21:54:45;10.65;;;9.63;;
18931;SDS011;9598;50.954;3.112;2024-01-30T21:59:47;12.15;;;10.93;;
18931;SDS011;9598;50.954;3.112;2024-01-30T22:04:51;11.73;;;10.55;;
18931;SDS011;9598;50.954;3.112;2024-01-30T22:09:53;13.40;;;11.73;;
18931;SDS011;9598;50.954;3.112;2024-01-30T22:14:56;16.23;;;14.35;;
18931;SDS011;9598;50.954;3.112;2024-01-30T22:19:59;14.00;;;12.65;;
18931;SDS011;9598;50.954;3.112;2024-01-30T22:25:02;15.25;;;13.75;;
18931;SDS011;9598;50.954;3.112;2024-01-30T22:30:06;13.95;;;12.18;;
18931;SDS011;9598;50.954;3.112;2024-01-30T22:35:10;13.35;;;12.02;;
18931;SDS011;9598;50.954;3.112;2024-01-30T22:40:13;13.02;;;11.65;;
18931;SDS011;9598;50.954;3.112;2024-01-30T22:45:15;13.38;;;11.90;;
18931;SDS011;9598;50.954;3.112;2024-01-30T22:50:19;14.77;;;12.75;;
18931;SDS011;9598;50.954;3.112;2024-01-30T22:55:22;15.10;;;12.25;;
18931;SDS011;9598;50.954;3.112;2024-01-30T23:00:26;14.82;;;12.82;;
18931;SDS011;9598;50.954;3.112;2024-01-30T23:05:30;16.70;;;14.90;;
18931;SDS011;9598;50.954;3.112;2024-01-30T23:10:33;15.38;;;13.77;;
18931;SDS011;9598;50.954;3.112;2024-01-30T23:15:35;16.33;;;13.65;;
18931;SDS011;9598;50.954;3.112;2024-01-30T23:20:39;15.13;;;13.63;;
18931;SDS011;9598;50.954;3.112;2024-01-30T23:25:41;17.27;;;15.48;;
18931;SDS011;9598;50.954;3.112;2024-01-30T23:30:43;18.83;;;16.83;;
18931;SDS011;9598;50.954;3.112;2024-01-30T23:35:47;23.13;;;18.67;;
18931;SDS011;9598;50.954;3.112;2024-01-30T23:40:49;21.55;;;19.25;;
18931;SDS011;9598;50.954;3.112;2024-01-30T23:45:51;22.13;;;19.77;;
18931;SDS011;9598;50.954;3.112;2024-01-30T23:50:55;16.77;;;13.63;;
18931;SDS011;9598;50.954;3.112;2024-01-30T23:55:57;10.57;;;9.52;;
